createdAt,value
2018-04-13T00:01:17.590Z,3.03
2018-04-13T00:03:45.520Z,3.77
2018-04-13T00:06:14.214Z,2.90
2018-04-13T00:08:43.349Z,4.77
2018-04-13T00:11:11.507Z,3.37
2018-04-13T00:13:39.886Z,3.00
2018-04-13T00:16:07.947Z,2.60
2018-04-13T00:18:35.954Z,2.23
2018-04-13T00:21:03.802Z,5.57
2018-04-13T00:23:31.385Z,2.67
2018-04-13T00:25:59.303Z,3.80
2018-04-13T00:28:26.990Z,3.00
2018-04-13T00:30:54.769Z,3.47
2018-04-13T00:33:22.694Z,5.37
2018-04-13T00:35:51.232Z,3.23
2018-04-13T00:38:18.936Z,4.07
2018-04-13T00:40:46.758Z,3.67
2018-04-13T00:43:14.753Z,3.67
2018-04-13T00:45:42.693Z,2.90
2018-04-13T00:48:10.691Z,3.33
2018-04-13T00:50:38.837Z,3.80
2018-04-13T00:53:18.516Z,3.40
2018-04-13T00:55:46.813Z,3.03
2018-04-13T00:58:15.646Z,3.23
2018-04-13T01:00:43.614Z,5.33
2018-04-13T01:03:12.299Z,3.13
2018-04-13T01:05:41.138Z,6.47
2018-04-13T01:08:09.873Z,2.70
2018-04-13T01:10:37.857Z,5.77
2018-04-13T01:13:05.969Z,4.23
2018-04-13T01:15:34.051Z,4.60
2018-04-13T01:18:02.818Z,3.03
2018-04-13T01:20:30.769Z,2.60
2018-04-13T01:22:58.902Z,4.70
2018-04-13T01:25:26.961Z,6.77
2018-04-13T01:27:54.786Z,5.87
2018-04-13T01:30:23.489Z,3.27
2018-04-13T01:32:52.253Z,3.70
2018-04-13T01:35:20.374Z,3.37
2018-04-13T01:37:48.463Z,2.50
2018-04-13T01:40:16.366Z,5.43
2018-04-13T01:42:44.175Z,3.23
2018-04-13T01:45:12.115Z,3.90
2018-04-13T01:47:40.931Z,4.67
2018-04-13T01:50:08.973Z,2.80
2018-04-13T01:52:36.766Z,4.67
2018-04-13T01:55:04.566Z,4.70
2018-04-13T01:57:32.541Z,3.10
2018-04-13T02:00:00.213Z,4.17
2018-04-13T02:02:27.851Z,3.87
2018-04-13T02:04:55.519Z,3.03
2018-04-13T02:07:23.149Z,3.47
2018-04-13T02:09:50.771Z,5.87
2018-04-13T02:12:19.160Z,3.50
2018-04-13T02:14:47.557Z,4.23
2018-04-13T02:17:15.201Z,3.23
2018-04-13T02:19:43.590Z,2.93
2018-04-13T02:22:11.327Z,4.43
2018-04-13T02:24:38.924Z,5.47
2018-04-13T02:27:06.870Z,5.57
2018-04-13T02:29:34.562Z,3.67
2018-04-13T02:32:02.384Z,6.60
2018-04-13T02:34:31.251Z,5.70
2018-04-13T02:36:59.648Z,6.87
2018-04-13T02:39:27.271Z,5.90
2018-04-13T02:41:55.190Z,7.13
2018-04-13T02:44:23.185Z,4.03
2018-04-13T02:46:51.478Z,5.97
2018-04-13T02:49:19.298Z,6.03
2018-04-13T02:51:47.329Z,7.93
2018-04-13T02:54:16.064Z,4.20
2018-04-13T02:56:44.193Z,3.03
2018-04-13T02:59:12.145Z,6.63
2018-04-13T03:01:40.125Z,3.40
2018-04-13T03:04:08.026Z,3.77
2018-04-13T03:06:36.568Z,3.77
2018-04-13T03:09:04.390Z,4.93
2018-04-13T03:11:32.275Z,4.50
2018-04-13T03:14:00.249Z,4.77
2018-04-13T03:16:28.959Z,3.67
2018-04-13T03:18:58.056Z,7.37
2018-04-13T03:21:26.697Z,3.97
2018-04-13T03:23:54.740Z,4.70
2018-04-13T03:26:22.696Z,5.13
2018-04-13T03:28:52.193Z,4.37
2018-04-13T03:31:20.264Z,5.00
2018-04-13T03:33:49.093Z,6.70
2018-04-13T03:36:17.305Z,4.50
2018-04-13T03:38:45.308Z,3.60
2018-04-13T03:41:13.251Z,5.97
2018-04-13T03:43:41.305Z,4.93
2018-04-13T03:46:09.237Z,4.20
2018-04-13T03:48:37.265Z,4.17
2018-04-13T03:51:06.133Z,6.03
2018-04-13T03:53:34.037Z,4.30
2018-04-13T03:56:01.880Z,4.57
2018-04-13T03:58:29.557Z,4.30
2018-04-13T04:00:57.180Z,5.67
2018-04-13T04:03:24.821Z,3.90
2018-04-13T04:05:52.508Z,4.10
2018-04-13T04:08:20.152Z,4.40
2018-04-13T04:10:47.831Z,3.60
2018-04-13T04:13:15.430Z,6.33
2018-04-13T04:15:43.060Z,6.80
2018-04-13T04:18:10.719Z,7.67
2018-04-13T04:20:50.070Z,6.80
2018-04-13T04:23:29.538Z,6.80
2018-04-13T04:26:09.032Z,6.77
2018-04-13T04:28:36.652Z,5.60
2018-04-13T04:31:04.370Z,10.80
2018-04-13T04:33:32.716Z,7.70
2018-04-13T04:36:00.317Z,18.13
2018-04-13T04:38:28.753Z,8.57
2018-04-13T04:40:56.365Z,6.77
2018-04-13T04:43:24.828Z,5.27
2018-04-13T04:45:53.228Z,6.37
2018-04-13T04:48:20.843Z,10.73
2018-04-13T04:50:48.424Z,5.87
2018-04-13T04:53:16.045Z,8.27
2018-04-13T04:55:43.651Z,5.70
2018-04-13T04:58:11.319Z,8.10
2018-04-13T05:00:39.687Z,8.23
2018-04-13T05:03:07.294Z,6.53
2018-04-13T05:05:34.869Z,4.67
2018-04-13T05:08:02.510Z,5.27
2018-04-13T05:10:30.133Z,7.47
2018-04-13T05:12:57.734Z,12.10
2018-04-13T05:15:25.373Z,10.47
2018-04-13T05:17:53.728Z,7.40
2018-04-13T05:20:21.376Z,7.73
2018-04-13T05:22:49.731Z,7.07
2018-04-13T05:25:17.429Z,5.80
2018-04-13T05:27:45.011Z,7.73
2018-04-13T05:30:13.391Z,6.10
2018-04-13T05:32:41.787Z,5.07
2018-04-13T05:35:09.448Z,5.43
2018-04-13T05:37:36.974Z,7.20
2018-04-13T05:40:04.530Z,7.10
2018-04-13T05:42:32.072Z,7.27
2018-04-13T05:44:59.649Z,6.60
2018-04-13T05:47:27.233Z,6.40
2018-04-13T05:49:55.629Z,6.97
2018-04-13T05:52:23.220Z,7.03
2018-04-13T05:54:50.825Z,8.27
2018-04-13T05:57:19.232Z,6.37
2018-04-13T05:59:46.807Z,9.40
2018-04-13T06:02:14.474Z,8.07
2018-04-13T06:04:42.053Z,8.97
2018-04-13T06:07:11.300Z,7.87
2018-04-13T06:09:39.659Z,8.07
2018-04-13T06:12:07.331Z,7.40
2018-04-13T06:14:35.699Z,6.17
2018-04-13T06:17:03.368Z,6.83
2018-04-13T06:19:31.012Z,7.33
2018-04-13T06:21:58.697Z,5.93
2018-04-13T06:24:26.326Z,7.83
2018-04-13T06:26:53.962Z,5.97
2018-04-13T06:29:21.625Z,6.97
2018-04-13T06:31:49.446Z,7.97
2018-04-13T06:34:17.063Z,5.77
2018-04-13T06:36:44.681Z,5.53
2018-04-13T06:39:12.486Z,5.83
2018-04-13T06:41:40.152Z,8.77
2018-04-13T06:44:07.737Z,7.57
2018-04-13T06:46:35.716Z,6.10
2018-04-13T06:49:03.695Z,9.27
2018-04-13T06:51:31.297Z,7.77
2018-04-13T06:53:58.983Z,8.17
2018-04-13T06:56:26.640Z,8.60
2018-04-13T06:58:54.699Z,6.93
2018-04-13T07:01:23.280Z,8.63
2018-04-13T07:03:51.747Z,7.53
2018-04-13T07:06:19.347Z,8.63
2018-04-13T07:08:46.965Z,7.37
2018-04-13T07:11:15.362Z,9.97
2018-04-13T07:13:42.958Z,8.00
2018-04-13T07:16:10.484Z,8.77
2018-04-13T07:18:38.091Z,11.43
2018-04-13T07:21:05.712Z,9.03
2018-04-13T07:23:33.340Z,12.93
2018-04-13T07:26:01.719Z,11.50
2018-04-13T07:28:30.121Z,9.67
2018-04-13T07:30:57.766Z,8.10
2018-04-13T07:33:25.383Z,8.43
2018-04-13T07:35:53.071Z,9.33
2018-04-13T07:38:21.450Z,8.97
2018-04-13T07:40:49.818Z,10.03
2018-04-13T07:43:17.455Z,9.57
2018-04-13T07:45:45.345Z,6.57
2018-04-13T07:48:12.754Z,10.17
2018-04-13T07:50:40.366Z,10.67
2018-04-13T07:53:08.031Z,7.80
2018-04-13T07:55:36.476Z,14.73
2018-04-13T07:58:04.093Z,13.00
2018-04-13T08:00:32.570Z,9.27
2018-04-13T08:03:00.201Z,11.17
2018-04-13T08:05:27.803Z,9.90
2018-04-13T08:07:56.272Z,10.23
2018-04-13T08:10:23.916Z,11.37
2018-04-13T08:12:51.583Z,9.70
2018-04-13T08:15:19.274Z,10.33
2018-04-13T08:17:46.838Z,11.40
2018-04-13T08:20:15.700Z,10.07
2018-04-13T08:22:43.837Z,12.10
2018-04-13T08:25:11.394Z,11.37
2018-04-13T08:27:38.960Z,12.57
2018-04-13T08:30:06.524Z,14.30
2018-04-13T08:32:34.133Z,15.07
2018-04-13T08:35:02.518Z,12.73
2018-04-13T08:37:30.068Z,13.13
2018-04-13T08:39:57.629Z,12.20
2018-04-13T08:42:25.981Z,12.60
2018-04-13T08:44:53.556Z,13.77
2018-04-13T08:47:21.249Z,15.07
2018-04-13T08:49:48.893Z,13.57
2018-04-13T08:52:16.467Z,18.47
2018-04-13T08:54:44.045Z,14.90
2018-04-13T08:57:11.681Z,18.40
2018-04-13T08:59:39.257Z,15.43
2018-04-13T09:02:06.870Z,18.00
2018-04-13T09:04:34.708Z,18.53
2018-04-13T09:07:02.465Z,14.67
2018-04-13T09:09:30.167Z,14.30
2018-04-13T09:11:57.790Z,13.80
2018-04-13T09:14:25.422Z,12.67
2018-04-13T09:16:53.864Z,12.07
2018-04-13T09:19:21.513Z,12.97
2018-04-13T09:21:49.199Z,14.50
2018-04-13T09:24:16.816Z,14.27
2018-04-13T09:26:44.425Z,15.33
2018-04-13T09:29:12.048Z,15.50
2018-04-13T09:31:39.670Z,16.83
2018-04-13T09:34:08.028Z,13.40
2018-04-13T09:36:35.586Z,10.00
2018-04-13T09:39:03.177Z,11.13
2018-04-13T09:41:31.479Z,11.27
2018-04-13T09:43:59.086Z,12.57
2018-04-13T09:46:26.658Z,10.90
2018-04-13T09:48:55.021Z,16.83
2018-04-13T09:51:22.650Z,12.83
2018-04-13T09:53:50.189Z,13.63
2018-04-13T09:56:17.749Z,11.90
2018-04-13T09:58:45.299Z,14.57
2018-04-13T10:01:12.888Z,13.40
2018-04-13T10:03:46.243Z,13.63
2018-04-13T10:06:14.578Z,11.87
2018-04-13T10:08:42.165Z,10.30
2018-04-13T10:11:09.760Z,12.83
2018-04-13T10:13:37.305Z,11.60
2018-04-13T10:16:05.713Z,10.93
2018-04-13T10:18:33.259Z,12.10
2018-04-13T10:21:00.843Z,10.10
2018-04-13T10:23:28.441Z,9.93
2018-04-13T10:25:56.174Z,9.20
2018-04-13T10:28:23.770Z,8.43
2018-04-13T10:30:52.369Z,7.73
2018-04-13T10:33:20.139Z,7.13
2018-04-13T10:35:49.398Z,7.67
2018-04-13T11:20:50.887Z,3.17
2018-04-13T11:23:19.203Z,7.93
2018-04-13T11:25:46.785Z,3.50
2018-04-13T11:28:14.333Z,2.60
2018-04-13T11:30:41.901Z,1.97
2018-04-13T11:33:09.501Z,1.03
2018-04-13T11:35:37.069Z,1.27
2018-04-13T11:38:04.613Z,1.30
2018-04-13T11:40:32.964Z,1.27
2018-04-13T11:43:00.500Z,0.80
2018-04-13T11:45:28.393Z,1.10
2018-04-13T11:47:56.123Z,0.80
2018-04-13T11:50:23.813Z,1.63
2018-04-13T11:52:51.450Z,2.30
2018-04-13T11:55:19.112Z,2.70
2018-04-13T11:57:46.692Z,2.07
2018-04-13T12:00:14.338Z,2.67
2018-04-13T12:02:41.936Z,0.73
2018-04-13T12:05:09.586Z,0.80
2018-04-13T12:07:37.565Z,0.60
2018-04-13T12:10:06.761Z,0.80
